Time;durP1;ratioP1;P1;durP2;ratioP2;P2;SDS_P1;SDS_P2;PMS_P1;PMS_P2;Temp;Humidity;BMP_temperature;BMP_pressure;BME280_temperature;BME280_humidity;BME280_pressure;Samples;Min_cycle;Max_cycle;Signal;HPM_P1;HPM_P2
2023/10/28 00:00:26;;;;;;;0.50;0.50;;;;;;;8.59;100.00;95354.59;29395;196;63005;-91
2023/10/28 00:01:00;;;;;;;0.50;0.50;;;;;;;8.63;100.00;95342.84;29394;256;64013;-90
2023/10/28 00:01:32;;;;;;;0.50;0.50;;;;;;;8.63;100.00;95334.72;29395;239;63005;-88
2023/10/28 00:02:06;;;;;;;0.50;0.50;;;;;;;8.63;100.00;95345.53;29394;229;64013;-90
2023/10/28 00:02:40;;;;;;;0.52;0.52;;;;;;;8.66;100.00;95342.19;29395;218;63004;-91
2023/10/28 00:03:12;;;;;;;0.50;0.50;;;;;;;8.64;100.00;95344.44;29395;353;63009;-90
2023/10/28 00:03:45;;;;;;;0.50;0.50;;;;;;;8.65;100.00;95343.31;29395;247;63004;-91
2023/10/28 00:04:16;;;;;;;0.50;0.50;;;;;;;8.68;100.00;95344.56;29395;269;63009;-90
2023/10/28 00:04:48;;;;;;;0.50;0.50;;;;;;;8.69;100.00;95343.44;29395;217;63004;-91
2023/10/28 00:05:19;;;;;;;0.50;0.50;;;;;;;8.68;100.00;95342.66;29395;203;63009;-92
2023/10/28 00:05:52;;;;;;;0.50;0.50;;;;;;;8.69;100.00;95348.88;29395;203;63011;-89
2023/10/28 00:06:24;;;;;;;0.50;0.50;;;;;;;8.68;100.00;95341.88;29395;274;63009;-92
2023/10/28 00:06:55;;;;;;;0.50;0.50;;;;;;;8.69;100.00;95349.66;29395;221;63005;-92
2023/10/28 00:07:29;;;;;;;0.50;0.50;;;;;;;8.68;100.00;95353.47;29394;197;64013;-91
2023/10/28 00:08:03;;;;;;;0.50;0.50;;;;;;;8.66;100.00;95350.28;29395;203;63005;-90
2023/10/28 00:08:37;;;;;;;0.50;0.50;;;;;;;8.65;100.00;95347.94;29395;219;63009;-91
2023/10/28 00:10:15;;;;;;;0.50;0.50;;;;;;;8.72;100.00;95356.34;88180;214;64004;-92
2023/10/28 00:10:50;;;;;;;0.50;0.50;;;;;;;8.76;100.00;95351.87;29394;256;64009;-92
2023/10/28 00:11:26;;;;;;;0.50;0.50;;;;;;;8.81;100.00;95350.94;29394;238;64009;-90
2023/10/28 00:12:02;;;;;;;0.50;0.50;;;;;;;8.79;100.00;95355.88;29395;266;63009;-89
2023/10/28 00:12:34;;;;;;;0.50;0.50;;;;;;;8.77;100.00;95358.09;29395;208;63005;-89
2023/10/28 00:13:07;;;;;;;0.60;0.60;;;;;;;8.85;100.00;95357.31;29395;225;63009;-93
2023/10/28 00:13:49;;;;;;;0.60;0.60;;;;;;;8.85;100.00;95357.31;29395;226;63004;-92
2023/10/28 00:14:24;;;;;;;0.50;0.50;;;;;;;8.78;100.00;95356.97;29395;236;63009;-91
2023/10/28 00:14:59;;;;;;;0.50;0.50;;;;;;;8.73;100.00;95366.03;29395;210;63004;-92
2023/10/28 00:15:31;;;;;;;0.50;0.50;;;;;;;8.71;100.00;95355.53;29395;253;63008;-90
2023/10/28 00:16:05;;;;;;;0.60;0.60;;;;;;;8.69;100.00;95360.47;29395;209;63004;-93
2023/10/28 00:16:38;;;;;;;0.50;0.50;;;;;;;8.74;100.00;95354.13;29394;218;64014;-89
2023/10/28 00:17:11;;;;;;;0.50;0.50;;;;;;;8.77;100.00;95371.62;29395;202;63005;-90
2023/10/28 00:17:42;;;;;;;0.50;0.50;;;;;;;8.82;100.00;95363.34;29395;286;63009;-92
2023/10/28 00:18:14;;;;;;;0.50;0.50;;;;;;;8.82;100.00;95360.66;29394;199;64009;-90
2023/10/28 00:18:49;;;;;;;0.50;0.50;;;;;;;8.79;100.00;95359.37;29395;253;63009;-91
2023/10/28 00:19:21;;;;;;;0.50;0.50;;;;;;;8.77;100.00;95355.38;29394;212;64009;-91
2023/10/28 00:19:57;;;;;;;0.50;0.50;;;;;;;8.71;100.00;95358.25;29395;266;63009;-89
2023/10/28 00:20:29;;;;;;;0.50;0.50;;;;;;;8.77;100.00;95358.87;29395;264;63005;-89
2023/10/28 00:21:01;;;;;;;0.50;0.50;;;;;;;8.73;100.00;95364.12;29395;215;63009;-91
2023/10/28 00:21:33;;;;;;;0.50;0.50;;;;;;;8.76;100.00;95356.50;29395;202;63004;-93
2023/10/28 00:22:06;;;;;;;0.50;0.50;;;;;;;8.73;100.00;95366.03;29395;204;63009;-88
2023/10/28 00:22:39;;;;;;;0.50;0.50;;;;;;;8.73;100.00;95364.12;29395;232;63004;-90
2023/10/28 00:23:16;;;;;;;0.50;0.50;;;;;;;8.70;100.00;95370.19;29395;202;63008;-92
2023/10/28 00:23:48;;;;;;;0.50;0.50;;;;;;;8.68;100.00;95369.69;29395;210;63004;-91
2023/10/28 00:25:31;;;;;;;0.50;0.50;;;;;;;8.59;100.00;95360.81;88180;209;64005;-91
2023/10/28 00:26:06;;;;;;;0.50;0.50;;;;;;;8.56;100.00;95366.84;29394;245;64001;-89
2023/10/28 00:26:38;;;;;;;0.50;0.50;;;;;;;8.57;100.00;95368.44;29395;211;63004;-89
2023/10/28 00:27:10;;;;;;;0.50;0.50;;;;;;;8.64;100.00;95373.38;29395;250;63009;-91
2023/10/28 00:27:44;;;;;;;0.50;0.50;;;;;;;8.68;100.00;95364.28;29395;258;63015;-91
2023/10/28 00:28:17;;;;;;;0.50;0.50;;;;;;;8.72;100.00;95376.06;29395;219;63009;-90
2023/10/28 00:28:49;;;;;;;0.50;0.50;;;;;;;8.76;100.00;95364.63;29394;250;64009;-89
2023/10/28 00:29:20;;;;;;;0.50;0.50;;;;;;;8.74;100.00;95368.44;29394;217;64009;-89
2023/10/28 00:29:53;;;;;;;0.50;0.50;;;;;;;8.74;100.00;95379.25;29395;221;63005;-90
2023/10/28 00:30:26;;;;;;;0.50;0.50;;;;;;;8.71;100.00;95369.06;29395;202;63009;-91
2023/10/28 00:30:59;;;;;;;0.50;0.50;;;;;;;8.68;100.00;95364.28;29395;250;63000;-91
2023/10/28 00:31:32;;;;;;;0.50;0.50;;;;;;;8.65;100.00;95364.94;29395;205;63009;-90
2023/10/28 00:32:06;;;;;;;0.50;0.50;;;;;;;8.65;100.00;95366.87;29395;223;63005;-91
2023/10/28 00:32:39;;;;;;;0.50;0.50;;;;;;;8.61;100.00;95363.19;29395;207;63020;-90
2023/10/28 00:33:10;;;;;;;0.50;0.50;;;;;;;8.59;100.00;95360.00;29395;202;63004;-90
2023/10/28 00:33:42;;;;;;;0.50;0.50;;;;;;;8.57;100.00;95362.25;29395;212;63009;-88
2023/10/28 00:34:15;;;;;;;0.50;0.50;;;;;;;8.55;100.00;95365.25;29394;222;64009;-90
2023/10/28 00:34:46;;;;;;;0.50;0.50;;;;;;;8.54;100.00;95365.56;29395;202;63009;-90
2023/10/28 00:35:21;;;;;;;0.50;0.50;;;;;;;8.53;100.00;95367.47;29395;225;63004;-93
2023/10/28 00:35:53;;;;;;;0.50;0.50;;;;;;;8.53;100.00;95370.19;29395;248;63009;-89
2023/10/28 00:36:29;;;;;;;0.50;0.50;;;;;;;8.52;100.00;95371.28;29395;204;63005;-91
2023/10/28 00:37:05;;;;;;;0.50;0.50;;;;;;;8.56;100.00;95372.25;29395;279;63009;-89
2023/10/28 00:37:36;;;;;;;0.55;0.55;;;;;;;8.67;100.00;95368.09;29395;202;63005;-91
2023/10/28 00:38:07;;;;;;;0.50;0.50;;;;;;;8.70;100.00;95362.06;29395;238;63009;-90
2023/10/28 00:38:38;;;;;;;0.50;0.50;;;;;;;8.68;100.00;95364.28;29395;206;63005;-91
2023/10/28 00:39:11;;;;;;;0.50;0.50;;;;;;;8.66;100.00;95365.75;29395;249;63009;-92
2023/10/28 00:40:50;;;;;;;0.50;0.50;;;;;;;8.64;100.00;95366.06;88178;210;64004;-93
2023/10/28 00:41:23;;;;;;;0.50;0.50;;;;;;;8.64;100.00;95368.78;29394;199;64009;-90
2023/10/28 00:41:54;;;;;;;0.50;0.50;;;;;;;8.62;100.00;95368.28;29395;237;63004;-90
2023/10/28 00:42:27;;;;;;;0.50;0.50;;;;;;;8.61;100.00;95366.69;29395;208;63009;-88
2023/10/28 00:43:00;;;;;;;0.50;0.50;;;;;;;8.61;100.00;95365.91;29394;225;64004;-89
2023/10/28 00:43:32;;;;;;;0.50;0.50;;;;;;;8.59;100.00;95366.22;29395;209;63009;-91
2023/10/28 00:44:06;;;;;;;0.50;0.50;;;;;;;8.60;100.00;95367.81;29395;239;63004;-91
2023/10/28 00:44:37;;;;;;;0.50;0.50;;;;;;;8.57;100.00;95368.44;29395;258;63008;-91
2023/10/28 00:45:11;;;;;;;0.50;0.50;;;;;;;8.56;100.00;95368.75;29394;218;64008;-91
2023/10/28 00:45:45;;;;;;;0.50;0.50;;;;;;;8.52;100.00;95376.69;29395;204;63009;-90
2023/10/28 00:46:32;;;;;;;0.50;0.50;;;;;;;8.49;100.00;95371.91;29395;233;63005;-90
2023/10/28 00:47:08;;;;;;;0.57;0.57;;;;;;;8.51;100.00;95369.69;29395;205;63009;-90
2023/10/28 00:47:56;;;;;;;0.60;0.60;;;;;;;8.50;100.00;95373.50;29395;225;63005;-90
2023/10/28 00:48:40;;;;;;;0.50;0.50;;;;;;;8.49;100.00;95371.91;29395;264;63009;-91
2023/10/28 00:49:20;;;;;;;0.50;0.50;;;;;;;8.50;100.00;95378.91;29395;233;63005;-90
2023/10/28 00:49:53;;;;;;;0.50;0.50;;;;;;;8.50;100.00;95368.09;29394;226;64013;-90
2023/10/28 00:50:27;;;;;;;0.50;0.50;;;;;;;8.48;100.00;95370.31;29395;254;63004;-91
2023/10/28 00:51:00;;;;;;;0.50;0.50;;;;;;;8.49;100.00;95366.50;29395;198;63009;-90
2023/10/28 00:51:33;;;;;;;0.50;0.50;;;;;;;8.49;100.00;95371.91;29395;271;63004;-92
2023/10/28 00:52:07;;;;;;;0.50;0.50;;;;;;;8.48;100.00;95367.63;29395;252;63018;-92
2023/10/28 00:52:50;;;;;;;0.50;0.50;;;;;;;8.48;100.00;95370.31;29394;260;64008;-91
2023/10/28 00:53:31;;;;;;;0.50;0.50;;;;;;;8.44;100.00;95374.78;29395;199;63028;-91
2023/10/28 00:54:09;;;;;;;0.50;0.50;;;;;;;8.54;100.00;95373.69;29394;231;64009;-91
2023/10/28 00:54:48;;;;;;;0.50;0.50;;;;;;;8.54;100.00;95377.19;29395;227;63009;-91
2023/10/28 00:56:30;;;;;;;0.53;0.53;;;;;;;8.62;100.00;95379.09;88180;202;64005;-90
2023/10/28 00:57:03;;;;;;;0.60;0.60;;;;;;;8.72;100.00;95381.47;29394;222;64009;-89
2023/10/28 00:57:34;;;;;;;0.50;0.50;;;;;;;8.76;100.00;95378.12;29395;199;63005;-92
2023/10/28 00:58:16;;;;;;;0.50;0.50;;;;;;;8.72;100.00;95381.47;29395;249;63009;-92
2023/10/28 00:58:48;;;;;;;0.50;0.50;;;;;;;8.67;100.00;95381.63;29395;377;63005;-92
2023/10/28 00:59:24;;;;;;;0.50;0.50;;;;;;;8.65;100.00;95380.38;29395;216;64013;-89
2023/10/28 01:00:06;;;;;;;0.50;0.50;;;;;;;8.63;100.00;95383.41;29395;196;63005;-89
2023/10/28 01:00:40;;;;;;;0.50;0.50;;;;;;;8.59;100.00;95382.44;29395;214;63009;-91
2023/10/28 01:01:14;;;;;;;0.50;0.50;;;;;;;8.55;100.00;95381.47;29394;223;64009;-90
2023/10/28 01:01:48;;;;;;;0.50;0.50;;;;;;;8.53;100.00;95370.19;29395;208;63009;-91
2023/10/28 01:02:19;;;;;;;0.50;0.50;;;;;;;8.52;100.00;95371.28;29395;239;63004;-92
2023/10/28 01:02:52;;;;;;;0.50;0.50;;;;;;;8.51;100.00;95379.72;29395;196;63009;-90
2023/10/28 01:03:25;;;;;;;0.50;0.50;;;;;;;8.46;100.00;95377.97;29394;198;64008;-91
2023/10/28 01:03:57;;;;;;;0.50;0.50;;;;;;;8.43;100.00;95378.59;29395;229;63008;-91
2023/10/28 01:04:28;;;;;;;0.50;0.50;;;;;;;8.41;100.00;95380.81;29395;197;63005;-89
2023/10/28 01:05:02;;;;;;;0.50;0.50;;;;;;;8.38;100.00;95386.84;29395;197;63009;-90
2023/10/28 01:05:35;;;;;;;0.52;0.52;;;;;;;8.35;100.00;95384.75;29395;197;63005;-91
2023/10/28 01:06:10;;;;;;;0.50;0.50;;;;;;;8.32;100.00;95382.66;29395;251;63009;-90
2023/10/28 01:06:43;;;;;;;0.57;0.57;;;;;;;8.39;100.00;95383.03;29395;207;63012;-88
2023/10/28 01:07:14;;;;;;;0.50;0.50;;;;;;;8.41;100.00;95380.81;29394;316;64003;-90
2023/10/28 01:07:49;;;;;;;0.50;0.50;;;;;;;8.42;100.00;95387.81;29395;219;63004;-90
2023/10/28 01:08:23;;;;;;;0.50;0.50;;;;;;;8.49;100.00;95382.72;29395;236;63009;-91
2023/10/28 01:08:55;;;;;;;0.50;0.50;;;;;;;8.52;100.00;95387.50;29395;205;63017;-90
2023/10/28 01:09:27;;;;;;;0.50;0.50;;;;;;;8.52;100.00;95387.50;29395;198;63009;-92
2023/10/28 01:10:03;;;;;;;0.50;0.50;;;;;;;8.51;100.00;95380.50;29395;242;63004;-91
2023/10/28 01:11:42;;;;;;;0.52;0.52;;;;;;;8.49;100.00;95388.13;88180;224;64004;-90
2023/10/28 01:12:16;;;;;;;0.50;0.50;;;;;;;8.52;100.00;95386.72;29394;243;64009;-91
2023/10/28 01:12:48;;;;;;;0.50;0.50;;;;;;;8.53;100.00;95391.81;29395;283;63004;-89
2023/10/28 01:13:20;;;;;;;0.50;0.50;;;;;;;8.61;100.00;95391.03;29395;253;63009;-89
2023/10/28 01:13:51;;;;;;;0.50;0.50;;;;;;;8.67;100.00;95387.03;29395;225;63007;-91
2023/10/28 01:14:23;;;;;;;0.50;0.50;;;;;;;8.64;100.00;95385.00;29394;249;64013;-91
2023/10/28 01:14:57;;;;;;;0.50;0.50;;;;;;;8.59;100.00;95392.47;29394;210;64009;-91
2023/10/28 01:15:28;;;;;;;0.50;0.50;;;;;;;8.55;100.00;95392.28;29395;257;63008;-90
2023/10/28 01:16:01;;;;;;;0.50;0.50;;;;;;;8.53;100.00;95386.41;29395;218;63004;-90
2023/10/28 01:16:34;;;;;;;0.50;0.50;;;;;;;8.54;100.00;95379.09;29395;203;63009;-89
2023/10/28 01:17:07;;;;;;;0.50;0.50;;;;;;;8.53;100.00;95386.41;29395;220;63005;-92
2023/10/28 01:17:38;;;;;;;0.50;0.50;;;;;;;8.55;100.00;95386.88;29394;203;64014;-90
2023/10/28 01:18:10;;;;;;;0.50;0.50;;;;;;;8.52;100.00;95387.50;29395;209;63005;-92
2023/10/28 01:18:43;;;;;;;0.50;0.50;;;;;;;8.54;100.00;95390.69;29395;212;63009;-91
2023/10/28 01:19:17;;;;;;;0.50;0.50;;;;;;;8.53;100.00;95383.69;29395;219;63005;-90
2023/10/28 01:19:48;;;;;;;0.50;0.50;;;;;;;8.53;100.00;95391.81;29395;259;63009;-91
2023/10/28 01:20:21;;;;;;;0.50;0.50;;;;;;;8.51;100.00;95385.91;29395;220;63004;-89
2023/10/28 01:20:54;;;;;;;0.50;0.50;;;;;;;8.50;100.00;95394.34;29395;214;63015;-93
2023/10/28 01:21:27;;;;;;;0.50;0.50;;;;;;;8.50;100.00;95395.13;29395;212;63004;-89
2023/10/28 01:21:58;;;;;;;0.50;0.50;;;;;;;8.54;100.00;95393.41;29395;242;63009;-91
2023/10/28 01:22:29;;;;;;;0.50;0.50;;;;;;;8.55;100.00;95386.09;29395;203;63004;-90
2023/10/28 01:23:00;;;;;;;0.52;0.52;;;;;;;8.58;100.00;95396.28;29394;221;64013;-90
2023/10/28 01:23:37;;;;;;;0.50;0.50;;;;;;;8.57;100.00;95390.06;29395;198;63004;-91
2023/10/28 01:24:10;;;;;;;0.60;0.60;;;;;;;8.56;100.00;95393.88;29395;393;63009;-90
2023/10/28 01:24:41;;;;;;;0.50;0.50;;;;;;;8.56;100.00;95391.19;29395;418;63001;-91
2023/10/28 01:25:12;;;;;;;0.50;0.50;;;;;;;8.69;100.00;95398.34;29395;197;63009;-90
2023/10/28 01:26:50;;;;;;;0.53;0.53;;;;;;;8.66;100.00;95387.38;88180;214;64004;-92
2023/10/28 01:27:22;;;;;;;0.50;0.50;;;;;;;8.71;100.00;95385.28;29394;253;64009;-90
2023/10/28 01:27:53;;;;;;;0.50;0.50;;;;;;;8.74;100.00;95394.69;29395;202;63005;-89
2023/10/28 01:28:26;;;;;;;0.50;0.50;;;;;;;8.70;100.00;95388.31;29395;243;63009;-91
2023/10/28 01:28:57;;;;;;;0.50;0.50;;;;;;;8.72;100.00;95397.69;29395;228;63005;-90
2023/10/28 01:29:33;;;;;;;0.50;0.50;;;;;;;8.77;100.00;95398.66;29394;259;64013;-88
2023/10/28 01:30:13;;;;;;;0.50;0.50;;;;;;;8.82;100.00;95393.09;29395;198;63005;-90
2023/10/28 01:30:44;;;;;;;0.50;0.50;;;;;;;8.78;100.00;95390.22;29395;417;63009;-91
2023/10/28 01:31:19;;;;;;;0.52;0.52;;;;;;;8.77;100.00;95398.66;29394;242;64009;-92
2023/10/28 01:31:50;;;;;;;0.50;0.50;;;;;;;8.77;100.00;95404.06;29395;218;63026;-90
2023/10/28 01:32:22;;;;;;;0.60;0.60;;;;;;;8.74;100.00;95400.88;29395;237;63004;-88
2023/10/28 01:32:54;;;;;;;0.50;0.50;;;;;;;8.71;100.00;95390.69;29395;226;63016;-89
2023/10/28 01:33:25;;;;;;;0.50;0.50;;;;;;;8.72;100.00;95402.31;29395;258;63000;-91
2023/10/28 01:33:56;;;;;;;0.50;0.50;;;;;;;8.68;100.00;95396.75;29395;213;63009;-89
2023/10/28 01:34:27;;;;;;;0.50;0.50;;;;;;;8.65;100.00;95402.81;29395;322;63005;-88
2023/10/28 01:34:59;;;;;;;0.50;0.50;;;;;;;8.62;100.00;95392.63;29394;227;64014;-90
2023/10/28 01:35:36;;;;;;;0.50;0.50;;;;;;;8.64;100.00;95390.41;29394;304;64009;-90
2023/10/28 01:36:09;;;;;;;0.50;0.50;;;;;;;8.66;100.00;95393.56;29395;216;63009;-90
2023/10/28 01:36:42;;;;;;;0.50;0.50;;;;;;;8.64;100.00;95390.41;29395;220;63010;-90
2023/10/28 01:37:16;;;;;;;0.50;0.50;;;;;;;8.60;100.00;95392.13;29395;295;63019;-91
2023/10/28 01:37:48;;;;;;;0.50;0.50;;;;;;;8.65;100.00;95396.59;29395;216;63005;-90
2023/10/28 01:38:23;;;;;;;0.60;0.60;;;;;;;8.65;100.00;95397.41;29395;323;63023;-93
2023/10/28 01:38:57;;;;;;;0.50;0.50;;;;;;;8.62;100.00;95402.63;29396;245;63004;-90
2023/10/28 01:39:28;;;;;;;0.60;0.60;;;;;;;8.59;100.00;95397.87;29395;438;63009;-90
2023/10/28 01:40:00;;;;;;;0.50;0.50;;;;;;;8.56;100.00;95402.00;29394;276;64009;-91
2023/10/28 01:40:32;;;;;;;0.50;0.50;;;;;;;8.54;100.00;95390.69;29394;244;64013;-94
2023/10/28 01:41:07;;;;;;;0.50;0.50;;;;;;;8.54;100.00;95401.50;29395;272;63004;-90
2023/10/28 01:41:40;;;;;;;0.50;0.50;;;;;;;8.54;100.00;95396.09;29394;253;64014;-91
2023/10/28 01:42:13;;;;;;;0.50;0.50;;;;;;;8.55;100.00;95396.91;29394;229;64009;-92
2023/10/28 01:42:47;;;;;;;0.50;0.50;;;;;;;8.52;100.00;95401.03;29395;204;63009;-92
2023/10/28 01:43:24;;;;;;;0.50;0.50;;;;;;;8.54;100.00;95406.91;29394;286;64009;-92
2023/10/28 01:43:58;;;;;;;0.50;0.50;;;;;;;8.56;100.00;95402.00;29395;281;63009;-92
2023/10/28 01:44:34;;;;;;;0.50;0.50;;;;;;;8.58;100.00;95405.19;29395;198;63005;-89
2023/10/28 01:45:09;;;;;;;0.50;0.50;;;;;;;8.59;100.00;95403.28;29395;270;63009;-90
2023/10/28 01:45:42;;;;;;;0.50;0.50;;;;;;;8.55;100.00;95405.81;29395;241;63004;-91
2023/10/28 01:46:13;;;;;;;0.50;0.50;;;;;;;8.54;100.00;95404.22;29395;257;63009;-91
2023/10/28 01:46:44;;;;;;;0.50;0.50;;;;;;;8.55;100.00;95410.41;29394;231;64004;-91
2023/10/28 01:47:17;;;;;;;0.50;0.50;;;;;;;8.57;100.00;95409.00;29395;256;63009;-92
2023/10/28 01:47:48;;;;;;;0.50;0.50;;;;;;;8.57;100.00;95411.69;29394;236;64009;-90
2023/10/28 01:48:19;;;;;;;0.50;0.50;;;;;;;8.55;100.00;95408.50;29395;220;63008;-91
2023/10/28 01:48:51;;;;;;;0.50;0.50;;;;;;;8.51;100.00;95401.34;29395;245;63015;-91
2023/10/28 01:49:23;;;;;;;0.50;0.50;;;;;;;8.49;100.00;95404.34;29395;197;63025;-90
2023/10/28 01:49:57;;;;;;;0.50;0.50;;;;;;;8.48;100.00;95402.78;29395;218;63005;-91
2023/10/28 01:50:30;;;;;;;0.52;0.52;;;;;;;8.49;100.00;95401.66;29395;225;63009;-91
2023/10/28 01:51:04;;;;;;;0.50;0.50;;;;;;;8.48;100.00;95408.19;29395;372;63005;-90
2023/10/28 01:51:37;;;;;;;0.50;0.50;;;;;;;8.49;100.00;95398.16;29394;451;64013;-93
2023/10/28 01:52:13;;;;;;;0.50;0.50;;;;;;;8.46;100.00;95399.59;29395;200;63005;-92
2023/10/28 01:52:44;;;;;;;0.50;0.50;;;;;;;8.46;100.00;95410.38;29395;262;63009;-91
2023/10/28 01:53:18;;;;;;;0.50;0.50;;;;;;;8.43;100.00;95400.22;29395;307;63015;-91
2023/10/28 01:53:49;;;;;;;0.50;0.50;;;;;;;8.42;100.00;95404.03;29395;252;63012;-93
2023/10/28 01:54:21;;;;;;;0.50;0.50;;;;;;;8.41;100.00;95407.84;29394;204;64009;-89
2023/10/28 01:54:55;;;;;;;0.50;0.50;;;;;;;8.42;100.00;95406.72;29395;260;63008;-89
2023/10/28 01:55:28;;;;;;;0.50;0.50;;;;;;;8.44;100.00;95406.41;29394;415;64008;-90
2023/10/28 01:55:59;;;;;;;0.50;0.50;;;;;;;8.44;100.00;95412.63;29395;196;63008;-89
2023/10/28 01:57:38;;;;;;;0.53;0.53;;;;;;;8.54;100.00;95406.91;88182;222;64005;-90
2023/10/28 01:58:10;;;;;;;0.50;0.50;;;;;;;8.54;100.00;95406.91;29394;222;64009;-91
2023/10/28 01:58:42;;;;;;;0.50;0.50;;;;;;;8.51;100.00;95402.12;29395;298;63004;-91
2023/10/28 01:59:14;;;;;;;0.50;0.50;;;;;;;8.52;100.00;95403.72;29395;223;63009;-91
2023/10/28 01:59:47;;;;;;;0.50;0.50;;;;;;;8.49;100.00;95401.66;29395;235;63004;-91
2023/10/28 02:00:20;;;;;;;0.50;0.50;;;;;;;8.47;100.00;95406.59;29395;266;63009;-91
2023/10/28 02:00:53;;;;;;;0.50;0.50;;;;;;;8.50;100.00;95405.94;29395;203;63005;-92
2023/10/28 02:01:25;;;;;;;0.50;0.50;;;;;;;8.49;100.00;95407.06;29395;214;63009;-90
2023/10/28 02:02:01;;;;;;;0.60;0.60;;;;;;;8.48;100.00;95401.97;29395;544;63005;-90
2023/10/28 02:02:36;;;;;;;0.50;0.50;;;;;;;8.50;100.00;95416.75;29395;218;63009;-90
2023/10/28 02:03:08;;;;;;;0.60;0.60;;;;;;;8.49;100.00;95415.16;29394;249;64009;-91
2023/10/28 02:03:40;;;;;;;0.50;0.50;;;;;;;8.50;100.00;95411.34;29395;410;63009;-92
2023/10/28 02:04:11;;;;;;;0.50;0.50;;;;;;;8.49;100.00;95417.88;29395;337;63005;-89
2023/10/28 02:04:44;;;;;;;0.57;0.57;;;;;;;8.52;100.00;95414.53;29395;462;63009;-91
2023/10/28 02:05:16;;;;;;;0.60;0.60;;;;;;;8.50;100.00;95413.25;29395;444;63004;-91
2023/10/28 02:05:49;;;;;;;0.60;0.60;;;;;;;8.48;100.00;95418.19;29395;257;63009;-91
2023/10/28 02:06:21;;;;;;;0.50;0.50;;;;;;;8.50;100.00;95410.56;29395;202;63012;-89
2023/10/28 02:06:54;;;;;;;0.50;0.50;;;;;;;8.49;100.00;95415.16;29395;231;63009;-91
2023/10/28 02:07:25;;;;;;;0.50;0.50;;;;;;;8.46;100.00;95415.00;29395;242;63004;-91
2023/10/28 02:07:59;;;;;;;0.50;0.50;;;;;;;8.40;100.00;95411.66;29394;393;64014;-91
2023/10/28 02:08:33;;;;;;;0.50;0.50;;;;;;;8.37;100.00;95420.37;29395;344;63005;-91
2023/10/28 02:09:08;;;;;;;0.50;0.50;;;;;;;8.34;100.00;95424.50;29395;202;63009;-92
2023/10/28 02:09:42;;;;;;;0.50;0.50;;;;;;;8.36;100.00;95422.28;29395;247;63005;-90
2023/10/28 02:10:13;;;;;;;0.50;0.50;;;;;;;8.44;100.00;95428.84;29395;339;63009;-92
2023/10/28 02:10:46;;;;;;;0.50;0.50;;;;;;;8.49;100.00;95420.59;29395;546;63005;-89
2023/10/28 02:11:17;;;;;;;0.50;0.50;;;;;;;8.46;100.00;95410.38;29395;199;63009;-93
2023/10/28 02:11:52;;;;;;;0.50;0.50;;;;;;;8.44;100.00;95418.03;29395;255;63005;-91
2023/10/28 02:12:24;;;;;;;0.50;0.50;;;;;;;8.40;100.00;95417.06;29395;196;63009;-90
2023/10/28 02:12:56;;;;;;;0.50;0.50;;;;;;;8.38;100.00;95422.78;29394;225;64004;-90
2023/10/28 02:13:27;;;;;;;0.50;0.50;;;;;;;8.38;100.00;95427.37;29394;243;64013;-92
2023/10/28 02:13:58;;;;;;;0.50;0.50;;;;;;;8.37;100.00;95420.37;29395;217;63010;-92
2023/10/28 02:14:31;;;;;;;0.50;0.50;;;;;;;8.36;100.00;95424.19;29395;255;63009;-90
2023/10/28 02:15:07;;;;;;;0.50;0.50;;;;;;;8.35;100.00;95425.31;29395;263;63004;-90
2023/10/28 02:15:41;;;;;;;0.50;0.50;;;;;;;8.36;100.00;95422.28;29395;197;63009;-93
2023/10/28 02:16:14;;;;;;;0.50;0.50;;;;;;;8.35;100.00;95417.19;29395;245;63011;-90
2023/10/28 02:16:47;;;;;;;0.50;0.50;;;;;;;8.34;100.00;95423.72;29395;241;63009;-91
2023/10/28 02:17:20;;;;;;;0.50;0.50;;;;;;;8.37;100.00;95423.09;29395;260;63005;-90
2023/10/28 02:17:55;;;;;;;0.50;0.50;;;;;;;8.37;100.00;95417.69;29395;260;63009;-91
2023/10/28 02:18:27;;;;;;;0.50;0.50;;;;;;;8.36;100.00;95429.59;29394;216;64009;-91
2023/10/28 02:18:58;;;;;;;0.50;0.50;;;;;;;8.33;100.00;95422.91;29394;238;64013;-90
2023/10/28 02:19:31;;;;;;;0.50;0.50;;;;;;;8.30;100.00;95420.84;29395;243;63005;-90
2023/10/28 02:20:07;;;;;;;0.50;0.50;;;;;;;8.28;100.00;95424.97;29395;221;63009;-90
2023/10/28 02:20:39;;;;;;;0.50;0.50;;;;;;;8.27;100.00;95423.38;29395;246;63010;-90
2023/10/28 02:21:14;;;;;;;0.50;0.50;;;;;;;8.24;100.00;95432.09;29395;212;63009;-91
2023/10/28 02:21:49;;;;;;;0.50;0.50;;;;;;;8.21;100.00;95436.22;29395;230;63004;-91
2023/10/28 02:22:20;;;;;;;0.50;0.50;;;;;;;8.22;100.00;95426.19;29395;250;63008;-91
2023/10/28 02:22:53;;;;;;;0.50;0.50;;;;;;;8.22;100.00;95426.19;29395;198;63004;-90
2023/10/28 02:23:27;;;;;;;0.50;0.50;;;;;;;8.24;100.00;95424.00;29395;252;63009;-92
2023/10/28 02:24:04;;;;;;;0.50;0.50;;;;;;;8.25;100.00;95431.78;29394;197;64009;-91
2023/10/28 02:24:37;;;;;;;0.50;0.50;;;;;;;8.32;100.00;95439.41;29395;215;63015;-92
2023/10/28 02:25:09;;;;;;;0.50;0.50;;;;;;;8.35;100.00;95426.09;29395;542;63005;-92
2023/10/28 02:25:42;;;;;;;0.50;0.50;;;;;;;8.35;100.00;95434.22;29395;248;63014;-93
2023/10/28 02:26:16;;;;;;;0.50;0.50;;;;;;;8.34;100.00;95434.53;29395;258;63005;-91
2023/10/28 02:26:49;;;;;;;0.50;0.50;;;;;;;8.35;100.00;95430.72;29395;337;63009;-92
2023/10/28 02:28:27;;;;;;;0.51;0.51;;;;;;;8.35;100.00;95425.31;88179;198;64004;-90
2023/10/28 02:29:01;;;;;;;0.50;0.50;;;;;;;8.32;100.00;95429.44;29394;223;64009;-92
2023/10/28 02:29:37;;;;;;;0.50;0.50;;;;;;;8.34;100.00;95429.13;29395;256;63008;-92
2023/10/28 02:30:14;;;;;;;0.50;0.50;;;;;;;8.37;100.00;95433.91;29395;198;63009;-94
2023/10/28 02:30:47;;;;;;;0.50;0.50;;;;;;;8.36;100.00;95437.72;29395;224;63005;-92
2023/10/28 02:31:18;;;;;;;0.50;0.50;;;;;;;8.34;100.00;95423.72;29395;245;63009;-91
2023/10/28 02:31:53;;;;;;;0.50;0.50;;;;;;;8.32;100.00;95420.50;29395;212;63004;-90
2023/10/28 02:32:26;;;;;;;0.50;0.50;;;;;;;8.34;100.00;95431.81;29395;246;63009;-91
2023/10/28 02:33:03;;;;;;;0.50;0.50;;;;;;;8.32;100.00;95432.12;29395;269;63004;-92
2023/10/28 02:33:34;;;;;;;0.60;0.60;;;;;;;8.32;100.00;95423.19;29395;229;63009;-92
2023/10/28 02:34:10;;;;;;;0.50;0.50;;;;;;;8.31;100.00;95432.44;29394;212;64008;-94
2023/10/28 02:34:47;;;;;;;0.60;0.60;;;;;;;8.30;100.00;95434.34;29395;415;63009;-92
2023/10/28 02:35:24;;;;;;;0.50;0.50;;;;;;;8.32;100.00;95431.31;29395;490;63005;-92
2023/10/28 02:35:57;;;;;;;0.50;0.50;;;;;;;8.32;100.00;95431.31;29395;205;63009;-93
2023/10/28 02:36:51;;;;;;;0.60;0.60;;;;;;;8.33;100.00;95427.53;29395;227;63005;-92
2023/10/28 02:37:27;;;;;;;0.50;0.50;;;;;;;8.35;100.00;95428.00;29395;222;63009;-94
2023/10/28 02:38:01;;;;;;;0.50;0.50;;;;;;;8.35;100.00;95425.31;29395;542;63005;-94
2023/10/28 02:38:35;;;;;;;0.50;0.50;;;;;;;8.38;100.00;95430.09;29395;251;63016;-91
2023/10/28 02:39:07;;;;;;;0.50;0.50;;;;;;;8.38;100.00;95430.09;29394;414;64009;-91
2023/10/28 02:39:38;;;;;;;0.50;0.50;;;;;;;8.38;100.00;95430.88;29395;237;63009;-92
2023/10/28 02:40:12;;;;;;;0.50;0.50;;;;;;;8.37;100.00;95433.91;29395;224;63004;-92
2023/10/28 02:40:48;;;;;;;0.50;0.50;;;;;;;8.35;100.00;95431.50;29395;224;63009;-93
2023/10/28 02:41:23;;;;;;;0.50;0.50;;;;;;;8.37;100.00;95436.59;29395;239;63004;-92
2023/10/28 02:41:54;;;;;;;0.60;0.60;;;;;;;8.40;100.00;95433.28;29396;203;63008;-92
2023/10/28 02:43:35;;;;;;;0.53;0.53;;;;;;;8.42;57.34;95439.16;88180;212;64005;-93
2023/10/28 02:44:06;;;;;;;0.50;0.50;;;;;;;8.40;57.17;95433.28;29394;229;64009;-94
2023/10/28 02:44:39;;;;;;;0.60;0.60;;;;;;;8.39;57.15;95431.69;29395;222;63004;-90
2023/10/28 02:45:10;;;;;;;0.50;0.50;;;;;;;8.42;57.49;95441.88;29395;256;63004;-92
2023/10/28 02:45:43;;;;;;;0.50;0.50;;;;;;;8.46;56.85;95431.22;29395;266;63004;-92
2023/10/28 02:46:45;;;;;;;0.50;0.50;;;;;;;8.43;56.51;95437.25;29395;299;63008;-92
2023/10/28 02:47:38;;;;;;;0.60;0.60;;;;;;;8.38;56.38;95440.88;29395;223;63005;-93
2023/10/28 02:48:25;;;;;;;0.60;0.60;;;;;;;8.37;57.05;95440.09;29394;261;64013;-91
2023/10/28 02:49:11;;;;;;;0.50;0.50;;;;;;;8.37;56.80;95439.31;29395;272;63005;-93
2023/10/28 02:49:44;;;;;;;0.50;0.50;;;;;;;8.37;56.77;95428.50;29395;411;63009;-92
2023/10/28 02:50:19;;;;;;;1.02;1.02;;;;;;;8.40;56.86;95433.28;29395;262;63005;-93
2023/10/28 02:50:53;;;;;;;0.50;0.50;;;;;;;8.43;56.78;95438.06;29395;240;63009;-93